Time;durP1;ratioP1;P1;durP2;ratioP2;P2;SDS_P1;SDS_P2;PMS_P1;PMS_P2;Temp;Humidity;BMP_temperature;BMP_pressure;BME280_temperature;BME280_humidity;BME280_pressure;Samples;Min_cycle;Max_cycle;Signal;HPM_P1;HPM_P2
2022/06/20 00:00:15;;;;;;;0.00;0.00;;;23.80;67.80;;;;;;5070375;28;20124;-76
2022/06/20 00:02:48;;;;;;;0.00;0.00;;;23.80;67.90;;;;;;5066518;28;20040;-75
2022/06/20 00:05:16;;;;;;;0.00;0.00;;;23.80;67.80;;;;;;5066241;28;20098;-76
2022/06/20 00:07:43;;;;;;;0.00;0.00;;;23.70;68.00;;;;;;5066090;28;20215;-75
2022/06/20 00:10:14;;;;;;;0.00;0.00;;;23.70;68.10;;;;;;5068243;28;20040;-75
2022/06/20 00:12:39;;;;;;;0.00;0.00;;;23.70;68.30;;;;;;5046537;28;20036;-76
2022/06/20 00:15:06;;;;;;;0.00;0.00;;;23.70;69.20;;;;;;5060418;28;20127;-76
2022/06/20 00:17:31;;;;;;;0.00;0.00;;;23.60;69.10;;;;;;5058279;28;20148;-76
2022/06/20 00:19:57;;;;;;;0.00;0.00;;;23.60;69.40;;;;;;5065573;28;20304;-76
2022/06/20 00:22:23;;;;;;;0.00;0.00;;;23.60;69.40;;;;;;5065743;28;20095;-76
2022/06/20 00:24:48;;;;;;;0.00;0.00;;;23.50;69.60;;;;;;5068308;28;20021;-74
2022/06/20 00:27:14;;;;;;;0.00;0.00;;;23.50;69.80;;;;;;5063631;28;20044;-74
2022/06/20 00:29:42;;;;;;;0.00;0.00;;;23.50;70.10;;;;;;5051423;28;20028;-76
2022/06/20 00:32:10;;;;;;;0.00;0.00;;;23.50;70.50;;;;;;5063561;28;20361;-76
2022/06/20 00:34:36;;;;;;;0.00;0.00;;;23.40;70.70;;;;;;5067363;28;20024;-76
2022/06/20 00:37:04;;;;;;;0.00;0.00;;;23.40;71.00;;;;;;5058649;28;20016;-76
2022/06/20 00:39:30;;;;;;;0.00;0.00;;;23.40;71.20;;;;;;5061744;28;20307;-75
2022/06/20 00:41:56;;;;;;;0.00;0.00;;;23.40;71.30;;;;;;5045625;28;20025;-77
2022/06/20 00:44:47;;;;;;;0.00;0.00;;;23.30;71.60;;;;;;5062478;28;20196;-77
2022/06/20 00:47:17;;;;;;;0.00;0.00;;;23.30;71.90;;;;;;5043026;28;20052;-76
2022/06/20 00:50:03;;;;;;;0.00;0.00;;;23.30;72.00;;;;;;5068285;28;20032;-74
2022/06/20 00:52:37;;;;;;;0.00;0.00;;;23.30;72.10;;;;;;5068365;28;20020;-77
2022/06/20 00:55:21;;;;;;;0.00;0.00;;;23.20;72.20;;;;;;5064757;28;20066;-74
2022/06/20 00:57:56;;;;;;;0.00;0.00;;;23.20;72.40;;;;;;5050767;28;20031;-77
2022/06/20 01:00:26;;;;;;;0.00;0.00;;;23.10;72.50;;;;;;5067613;28;20060;-74
2022/06/20 01:03:12;;;;;;;0.00;0.00;;;23.00;72.90;;;;;;5063155;28;20037;-79
2022/06/20 01:05:43;;;;;;;0.00;0.00;;;23.00;73.30;;;;;;5062785;28;20024;-76
2022/06/20 01:08:23;;;;;;;0.00;0.00;;;23.00;73.70;;;;;;5061831;28;20025;-75
2022/06/20 01:10:58;;;;;;;0.00;0.00;;;23.00;73.80;;;;;;5067992;28;20087;-76
2022/06/20 01:13:26;;;;;;;0.00;0.00;;;22.90;74.00;;;;;;5030659;28;20074;-76
2022/06/20 01:15:55;;;;;;;0.00;0.00;;;22.90;74.20;;;;;;5046670;28;20157;-75
2022/06/20 01:18:30;;;;;;;0.00;0.00;;;22.90;74.30;;;;;;5067367;28;20025;-76
2022/06/20 01:20:58;;;;;;;0.00;0.00;;;22.90;74.50;;;;;;5070177;28;20035;-77
2022/06/20 01:23:43;;;;;;;0.00;0.00;;;22.80;74.70;;;;;;5067567;28;20032;-76
2022/06/20 01:26:27;;;;;;;0.00;0.00;;;22.80;74.80;;;;;;5062808;28;20028;-76
2022/06/20 01:28:57;;;;;;;0.00;0.00;;;22.80;74.90;;;;;;5047519;28;20020;-79
2022/06/20 01:31:25;;;;;;;0.00;0.00;;;22.70;75.00;;;;;;5066014;28;20031;-76
2022/06/20 01:33:51;;;;;;;0.00;0.00;;;22.70;75.10;;;;;;5069031;28;20060;-76
2022/06/20 01:39:04;;;;;;;0.00;0.00;;;22.70;75.20;;;;;;5060465;28;20040;-75
2022/06/20 01:44:17;;;;;;;0.00;0.00;;;22.60;75.40;;;;;;5066143;28;20035;-75
2022/06/20 01:46:44;;;;;;;0.00;0.00;;;22.60;75.70;;;;;;5068502;28;20032;-76
2022/06/20 01:49:15;;;;;;;0.00;0.00;;;22.60;75.80;;;;;;5041754;28;20055;-75
2022/06/20 01:51:51;;;;;;;0.00;0.00;;;22.50;75.80;;;;;;5056341;28;20028;-78
2022/06/20 01:54:19;;;;;;;0.00;0.00;;;22.50;76.10;;;;;;5055703;28;20479;-79
2022/06/20 01:56:47;;;;;;;0.00;0.00;;;22.40;76.10;;;;;;5062946;28;20021;-74
2022/06/20 01:59:18;;;;;;;;;;;22.40;76.20;;;;;;5071074;28;20221;-74
2022/06/20 02:01:44;;;;;;;0.00;0.00;;;22.40;76.20;;;;;;5039421;28;20192;-74
2022/06/20 02:04:16;;;;;;;0.00;0.00;;;22.40;76.20;;;;;;5066773;28;20028;-74
2022/06/20 02:06:42;;;;;;;0.00;0.00;;;22.30;76.30;;;;;;5061553;28;20093;-76
2022/06/20 02:09:11;;;;;;;0.00;0.00;;;22.30;76.30;;;;;;5048209;28;20025;-75
2022/06/20 02:11:43;;;;;;;0.00;0.00;;;22.30;76.50;;;;;;5057389;28;20025;-78
2022/06/20 02:14:17;;;;;;;0.00;0.00;;;22.30;76.80;;;;;;5071077;28;20090;-76
2022/06/20 02:16:46;;;;;;;0.00;0.00;;;22.30;76.80;;;;;;5047182;28;20035;-75
2022/06/20 02:19:16;;;;;;;0.00;0.00;;;22.20;77.10;;;;;;5062460;28;20051;-77
2022/06/20 02:21:45;;;;;;;0.00;0.00;;;22.20;77.10;;;;;;5067643;28;20055;-74
2022/06/20 02:24:18;;;;;;;0.00;0.00;;;22.20;77.30;;;;;;5057722;28;20215;-74
2022/06/20 02:26:48;;;;;;;0.00;0.00;;;22.20;77.30;;;;;;5053066;28;20028;-74
2022/06/20 02:29:22;;;;;;;0.00;0.00;;;22.20;77.30;;;;;;5047401;28;20097;-74
2022/06/20 02:31:55;;;;;;;0.00;0.00;;;22.20;77.50;;;;;;5051703;28;20046;-75
2022/06/20 02:34:24;;;;;;;0.00;0.00;;;22.20;77.50;;;;;;5052031;28;20362;-74
2022/06/20 02:36:50;;;;;;;0.00;0.00;;;22.10;77.40;;;;;;5066740;28;20228;-75
2022/06/20 02:39:18;;;;;;;0.00;0.00;;;22.10;77.50;;;;;;5046515;28;20059;-75
2022/06/20 02:41:46;;;;;;;0.00;0.00;;;22.10;77.80;;;;;;5066758;28;20020;-74
2022/06/20 02:44:18;;;;;;;0.00;0.00;;;22.10;77.80;;;;;;5069335;28;20354;-75
2022/06/20 02:46:47;;;;;;;0.00;0.00;;;22.10;77.90;;;;;;5071993;28;20099;-75
2022/06/20 02:49:16;;;;;;;0.00;0.00;;;22.10;78.60;;;;;;5061624;28;20211;-75
2022/06/20 02:51:45;;;;;;;0.00;0.00;;;22.00;77.90;;;;;;5049017;28;20090;-75
2022/06/20 02:54:13;;;;;;;0.00;0.00;;;22.00;78.00;;;;;;5064320;28;20328;-75
2022/06/20 02:56:58;;;;;;;0.00;0.00;;;22.00;77.90;;;;;;5064084;28;20020;-74
2022/06/20 02:59:28;;;;;;;0.00;0.00;;;22.00;78.10;;;;;;5068725;28;20044;-75
2022/06/20 03:02:15;;;;;;;0.00;0.00;;;21.90;78.30;;;;;;5057792;28;20091;-74
2022/06/20 03:04:44;;;;;;;0.00;0.00;;;21.90;78.40;;;;;;5048337;28;20029;-77
2022/06/20 03:07:15;;;;;;;0.00;0.00;;;21.90;78.60;;;;;;5049835;28;20071;-76
2022/06/20 03:09:43;;;;;;;0.00;0.00;;;21.80;78.60;;;;;;5054997;28;20017;-75
2022/06/20 03:12:10;;;;;;;0.00;0.00;;;21.80;78.70;;;;;;5053656;28;20127;-73
2022/06/20 03:14:42;;;;;;;0.00;0.00;;;21.80;78.90;;;;;;5072550;28;20027;-74
2022/06/20 03:17:08;;;;;;;0.00;0.00;;;21.70;79.20;;;;;;5053624;28;20016;-77
2022/06/20 03:19:39;;;;;;;0.00;0.00;;;21.70;79.40;;;;;;5062589;28;20032;-74
2022/06/20 03:22:12;;;;;;;0.00;0.00;;;21.70;79.40;;;;;;5063644;28;20055;-75
2022/06/20 03:24:38;;;;;;;0.00;0.00;;;21.70;79.60;;;;;;5045046;28;20033;-74
2022/06/20 03:27:06;;;;;;;0.00;0.00;;;21.60;79.70;;;;;;5061394;28;20079;-75
2022/06/20 03:29:37;;;;;;;0.00;0.00;;;21.70;80.00;;;;;;5049293;28;20028;-75
2022/06/20 03:32:03;;;;;;;0.00;0.00;;;21.60;80.10;;;;;;5061626;28;20066;-76
2022/06/20 03:34:29;;;;;;;0.00;0.00;;;21.60;80.20;;;;;;5073360;28;20027;-77
2022/06/20 03:36:54;;;;;;;0.00;0.00;;;21.60;80.20;;;;;;5063264;28;20039;-75
2022/06/20 03:39:21;;;;;;;0.00;0.00;;;21.70;80.30;;;;;;5067042;28;20043;-76
2022/06/20 03:41:49;;;;;;;0.00;0.00;;;21.60;80.40;;;;;;5066929;28;20328;-74
2022/06/20 03:44:20;;;;;;;0.00;0.00;;;21.60;80.40;;;;;;5071763;28;20377;-75
2022/06/20 03:47:07;;;;;;;0.00;0.00;;;21.70;80.60;;;;;;5070702;28;20226;-74
2022/06/20 03:49:40;;;;;;;0.00;0.00;;;21.70;80.80;;;;;;5063097;28;20088;-74
2022/06/20 03:52:13;;;;;;;0.00;0.00;;;21.70;80.70;;;;;;5068028;28;20204;-75
2022/06/20 03:54:57;;;;;;;0.00;0.00;;;21.70;80.90;;;;;;5067236;28;20012;-75
2022/06/20 03:58:00;;;;;;;0.00;0.00;;;21.70;80.90;;;;;;5050208;28;20096;-75
2022/06/20 04:00:36;;;;;;;0.00;0.00;;;21.70;81.10;;;;;;5037991;28;20060;-76
2022/06/20 04:03:15;;;;;;;0.00;0.00;;;21.70;81.30;;;;;;5086053;28;20196;-75
2022/06/20 04:06:15;;;;;;;0.00;0.00;;;21.70;81.50;;;;;;5092550;28;20036;-75
2022/06/20 04:11:59;;;;;;;0.00;0.00;;;21.70;81.50;;;;;;5086276;28;20989;-75
2022/06/20 04:14:38;;;;;;;0.00;0.00;;;21.70;81.40;;;;;;5085757;28;20088;-75
2022/06/20 04:20:04;;;;;;;0.00;0.00;;;21.80;82.00;;;;;;5082115;28;20212;-74
2022/06/20 04:22:33;;;;;;;0.00;0.00;;;21.80;82.00;;;;;;5083283;28;20033;-75
2022/06/20 04:25:24;;;;;;;0.00;0.00;;;21.80;81.80;;;;;;5093692;28;20365;-74
2022/06/20 04:27:59;;;;;;;0.00;0.00;;;21.80;81.30;;;;;;5088853;28;20031;-73
2022/06/20 04:30:33;;;;;;;0.00;0.00;;;21.80;81.00;;;;;;5081115;28;20020;-74
2022/06/20 04:33:27;;;;;;;0.00;0.00;;;21.80;81.00;;;;;;5093078;28;20082;-74
2022/06/20 04:36:15;;;;;;;0.00;0.00;;;21.80;80.80;;;;;;5091212;28;20016;-74
2022/06/20 04:38:49;;;;;;;0.00;0.00;;;21.80;81.00;;;;;;5077093;28;20032;-73
2022/06/20 04:41:35;;;;;;;0.00;0.00;;;21.80;80.80;;;;;;5079739;28;20032;-73
2022/06/20 04:44:24;;;;;;;0.00;0.00;;;21.80;81.10;;;;;;5077008;28;20025;-76
2022/06/20 04:47:05;;;;;;;0.00;0.00;;;21.80;81.10;;;;;;5078574;28;20159;-75
2022/06/20 04:49:32;;;;;;;0.00;0.00;;;21.80;81.30;;;;;;5091557;28;20027;-75
2022/06/20 04:51:57;;;;;;;0.00;0.00;;;21.80;81.40;;;;;;5086435;28;20031;-77
2022/06/20 04:54:23;;;;;;;0.00;0.00;;;21.80;81.50;;;;;;5087823;28;20024;-75
2022/06/20 04:56:53;;;;;;;0.00;0.00;;;21.80;81.70;;;;;;5077753;28;20169;-73
2022/06/20 04:59:23;;;;;;;0.00;0.00;;;21.80;81.80;;;;;;5076240;28;20032;-74
2022/06/20 05:01:50;;;;;;;0.00;0.00;;;21.70;82.00;;;;;;5045005;28;20028;-74
2022/06/20 05:04:43;;;;;;;0.00;0.00;;;21.70;82.00;;;;;;5061560;28;20028;-75
2022/06/20 05:07:31;;;;;;;0.00;0.00;;;21.80;82.20;;;;;;5056967;28;20091;-75
2022/06/20 05:10:11;;;;;;;0.00;0.00;;;21.90;82.40;;;;;;5062367;28;20021;-76
2022/06/20 05:12:52;;;;;;;0.00;0.00;;;21.90;82.10;;;;;;5056316;28;20028;-76
2022/06/20 05:15:35;;;;;;;0.00;0.00;;;21.90;82.30;;;;;;5045246;28;20204;-74
2022/06/20 05:18:10;;;;;;;0.00;0.00;;;21.90;81.80;;;;;;5045023;28;20032;-75
2022/06/20 05:20:38;;;;;;;0.00;0.00;;;21.90;81.90;;;;;;5043963;28;20349;-75
2022/06/20 05:23:09;;;;;;;0.00;0.00;;;21.90;81.90;;;;;;5058203;28;20039;-74
2022/06/20 05:25:37;;;;;;;0.00;0.00;;;22.00;82.20;;;;;;5049161;28;20029;-75
2022/06/20 05:28:09;;;;;;;0.00;0.00;;;22.00;82.40;;;;;;5044462;28;20163;-76
2022/06/20 05:30:36;;;;;;;0.00;0.00;;;22.00;82.40;;;;;;5046771;28;20096;-76
2022/06/20 05:33:10;;;;;;;0.00;0.00;;;22.00;82.30;;;;;;5044547;28;20107;-76
2022/06/20 05:35:44;;;;;;;0.00;0.00;;;22.00;82.30;;;;;;5043291;28;20016;-75
2022/06/20 05:38:34;;;;;;;0.00;0.00;;;22.10;82.30;;;;;;5064663;28;20028;-75
2022/06/20 05:41:01;;;;;;;0.00;0.00;;;22.10;82.00;;;;;;5047035;28;20029;-74
2022/06/20 05:43:31;;;;;;;0.00;0.00;;;22.10;82.10;;;;;;5063794;28;20060;-75
2022/06/20 05:46:06;;;;;;;0.00;0.00;;;22.10;82.30;;;;;;5047220;28;20037;-76
2022/06/20 05:48:44;;;;;;;0.00;0.00;;;22.10;82.50;;;;;;5046518;28;20077;-75
2022/06/20 05:51:14;;;;;;;0.00;0.00;;;22.10;82.70;;;;;;5070170;28;20292;-73
2022/06/20 05:53:48;;;;;;;0.00;0.00;;;22.20;82.90;;;;;;5062339;28;20330;-73
2022/06/20 05:56:42;;;;;;;0.00;0.00;;;22.20;82.90;;;;;;5067649;28;20035;-75
2022/06/20 05:59:37;;;;;;;0.00;0.00;;;22.30;82.60;;;;;;5068927;28;20272;-75
2022/06/20 06:02:22;;;;;;;0.00;0.00;;;22.30;82.40;;;;;;5051039;28;20052;-76
2022/06/20 06:05:03;;;;;;;0.00;0.00;;;22.30;82.50;;;;;;5071530;28;20039;-77
2022/06/20 06:07:44;;;;;;;0.00;0.00;;;22.40;82.70;;;;;;5056458;28;20279;-76
2022/06/20 06:10:33;;;;;;;0.00;0.00;;;22.60;82.80;;;;;;5067563;28;20017;-76
2022/06/20 06:13:24;;;;;;;0.00;0.00;;;22.90;82.80;;;;;;5069669;28;20773;-76
2022/06/20 06:19:19;;;;;;;0.00;0.00;;;24.00;80.40;;;;;;5065020;28;20132;-78
2022/06/20 06:21:47;;;;;;;0.00;0.00;;;24.80;77.90;;;;;;5046814;28;20204;-76
2022/06/20 06:24:17;;;;;;;0.00;0.00;;;25.40;74.90;;;;;;5057805;28;20057;-77
2022/06/20 06:26:45;;;;;;;0.00;0.00;;;26.00;73.70;;;;;;5064247;28;20016;-77
2022/06/20 06:29:19;;;;;;;0.00;0.00;;;26.60;72.50;;;;;;5068540;28;20089;-78
2022/06/20 06:31:48;;;;;;;0.00;0.00;;;27.20;70.00;;;;;;5045927;28;20231;-78
2022/06/20 06:34:26;;;;;;;0.00;0.00;;;27.70;68.60;;;;;;5069397;28;20033;-78
2022/06/20 06:36:54;;;;;;;;;;;28.10;67.00;;;;;;5065612;28;20025;-79
2022/06/20 06:39:23;;;;;;;0.00;0.00;;;28.60;66.60;;;;;;5059561;28;19954;-79
2022/06/20 06:41:54;;;;;;;0.00;0.00;;;29.20;65.80;;;;;;5048394;28;20331;-77
2022/06/20 06:44:42;;;;;;;0.00;0.00;;;29.50;64.10;;;;;;5059117;28;20024;-78
2022/06/20 06:47:36;;;;;;;0.00;0.00;;;30.00;64.10;;;;;;5063981;28;20021;-79
2022/06/20 06:50:20;;;;;;;0.00;0.00;;;30.50;62.30;;;;;;5048510;28;20017;-79
2022/06/20 06:52:54;;;;;;;0.00;0.00;;;31.00;60.40;;;;;;5066911;28;20036;-78
2022/06/20 06:55:40;;;;;;;0.00;0.00;;;31.40;60.90;;;;;;5066131;28;20019;-79
2022/06/20 06:58:21;;;;;;;0.00;0.00;;;31.90;59.60;;;;;;5053428;28;20402;-78
2022/06/20 07:00:59;;;;;;;0.00;0.00;;;32.30;58.30;;;;;;5066704;28;20070;-82
2022/06/20 07:03:41;;;;;;;0.00;0.00;;;32.70;58.20;;;;;;5064355;28;20036;-78
2022/06/20 07:06:21;;;;;;;0.00;0.00;;;33.00;57.70;;;;;;5045216;28;20039;-79
2022/06/20 07:08:54;;;;;;;0.00;0.00;;;33.40;56.40;;;;;;5068853;28;20025;-78
2022/06/20 07:11:23;;;;;;;0.00;0.00;;;33.60;56.20;;;;;;5047833;28;20031;-78
2022/06/20 07:14:17;;;;;;;0.00;0.00;;;33.90;55.90;;;;;;5067868;28;20036;-78
2022/06/20 07:17:08;;;;;;;0.00;0.00;;;34.00;55.30;;;;;;5046964;28;20317;-78
2022/06/20 07:19:37;;;;;;;0.00;0.00;;;34.10;55.30;;;;;;5047340;28;20027;-79
2022/06/20 07:22:03;;;;;;;0.00;0.00;;;34.20;55.00;;;;;;5071697;28;20017;-78
2022/06/20 07:24:33;;;;;;;0.00;0.00;;;34.20;54.40;;;;;;5063736;28;20033;-78
2022/06/20 07:27:08;;;;;;;0.00;0.00;;;33.80;54.20;;;;;;5062031;28;20268;-78
2022/06/20 07:29:40;;;;;;;0.00;0.00;;;33.00;55.20;;;;;;5067805;28;20035;-78
2022/06/20 07:32:12;;;;;;;0.00;0.00;;;32.40;56.60;;;;;;5057494;28;20024;-77
2022/06/20 07:34:49;;;;;;;0.00;0.00;;;31.60;58.00;;;;;;5050552;28;20029;-78
2022/06/20 07:37:33;;;;;;;0.00;0.00;;;30.90;58.90;;;;;;5051954;28;20016;-77
2022/06/20 07:40:04;;;;;;;0.00;0.00;;;30.10;60.30;;;;;;5061303;28;20020;-77
2022/06/20 07:42:36;;;;;;;0.00;0.00;;;29.70;62.00;;;;;;5050244;28;20021;-78
2022/06/20 07:45:15;;;;;;;0.00;0.00;;;29.40;63.00;;;;;;5052052;28;20052;-78
2022/06/20 07:47:50;;;;;;;0.00;0.00;;;29.30;63.60;;;;;;5060857;28;20021;-77
2022/06/20 07:50:22;;;;;;;0.00;0.00;;;29.20;63.90;;;;;;5048402;28;20017;-77
2022/06/20 07:52:55;;;;;;;0.00;0.00;;;29.30;64.50;;;;;;5057948;28;20028;-78
2022/06/20 07:55:24;;;;;;;0.00;0.00;;;29.30;64.30;;;;;;5060936;28;20032;-78
2022/06/20 07:57:56;;;;;;;0.00;0.00;;;29.50;64.50;;;;;;5054888;28;20242;-77
2022/06/20 08:00:24;;;;;;;0.00;0.00;;;29.80;65.20;;;;;;5061825;28;20407;-79
2022/06/20 08:02:58;;;;;;;0.00;0.00;;;30.30;63.90;;;;;;5063042;28;20058;-78
2022/06/20 08:05:26;;;;;;;0.00;0.00;;;31.20;63.10;;;;;;5062210;28;20215;-79
2022/06/20 08:08:02;;;;;;;0.00;0.00;;;32.20;60.90;;;;;;5062280;28;20025;-80
2022/06/20 08:10:41;;;;;;;0.00;0.00;;;33.50;58.60;;;;;;5059542;28;20032;-79
2022/06/20 08:13:12;;;;;;;0.00;0.00;;;34.60;56.80;;;;;;5060541;28;20269;-81
2022/06/20 08:16:10;;;;;;;0.00;0.00;;;35.70;55.00;;;;;;5051611;28;20020;-80
2022/06/20 08:18:36;;;;;;;0.00;0.00;;;36.80;53.60;;;;;;5066785;28;20447;-80
2022/06/20 08:21:25;;;;;;;0.00;0.00;;;37.60;52.00;;;;;;5064133;28;20023;-80
2022/06/20 08:24:10;;;;;;;0.00;0.00;;;38.40;51.50;;;;;;5060949;28;20267;-78
2022/06/20 08:27:00;;;;;;;0.00;0.00;;;39.20;49.80;;;;;;5058342;28;20083;-79
2022/06/20 08:29:36;;;;;;;0.00;0.00;;;39.70;48.90;;;;;;5063616;28;20084;-79
2022/06/20 08:32:40;;;;;;;0.00;0.00;;;40.10;48.00;;;;;;5062722;28;20029;-80
2022/06/20 08:35:15;;;;;;;0.00;0.00;;;40.50;47.40;;;;;;5061645;28;20033;-80
2022/06/20 08:37:50;;;;;;;0.00;0.00;;;40.90;47.20;;;;;;5058812;28;20070;-80
2022/06/20 08:40:45;;;;;;;0.00;0.00;;;41.20;47.40;;;;;;5065850;28;20069;-80
2022/06/20 08:43:38;;;;;;;0.00;0.00;;;41.80;47.60;;;;;;5064958;28;20208;-80
2022/06/20 08:46:04;;;;;;;0.00;0.00;;;42.20;45.90;;;;;;5069397;28;20036;-81
2022/06/20 08:49:03;;;;;;;0.00;0.00;;;42.50;44.60;;;;;;5040466;28;20021;-80
2022/06/20 08:52:09;;;;;;;0.00;0.00;;;42.70;44.40;;;;;;5063882;28;20021;-80
2022/06/20 08:55:09;;;;;;;0.00;0.00;;;43.00;44.20;;;;;;5064089;28;20025;-80
2022/06/20 08:58:02;;;;;;;0.00;0.00;;;43.50;43.80;;;;;;5060431;28;20021;-80
2022/06/20 09:00:54;;;;;;;0.00;0.00;;;43.90;43.50;;;;;;5058821;28;20064;-80
2022/06/20 09:03:37;;;;;;;0.00;0.00;;;44.20;42.90;;;;;;4999191;28;20045;-80
2022/06/20 09:06:26;;;;;;;0.00;0.00;;;44.30;42.60;;;;;;5060582;28;20078;-80
2022/06/20 09:09:17;;;;;;;0.00;0.00;;;44.50;42.60;;;;;;5061860;28;20053;-80
2022/06/20 09:12:01;;;;;;;0.00;0.00;;;44.90;42.40;;;;;;5065657;28;20307;-80
2022/06/20 09:14:52;;;;;;;0.00;0.00;;;45.30;43.50;;;;;;5045852;28;20036;-80
2022/06/20 09:17:22;;;;;;;0.00;0.00;;;45.90;41.90;;;;;;5044266;28;20084;-78
2022/06/20 09:20:26;;;;;;;0.00;0.00;;;45.80;41.00;;;;;;5063734;28;20021;-78
2022/06/20 09:23:06;;;;;;;0.00;0.00;;;45.80;41.50;;;;;;5061494;28;20032;-79
2022/06/20 09:25:38;;;;;;;0.00;0.00;;;45.90;40.60;;;;;;5045445;28;20025;-78
2022/06/20 09:28:24;;;;;;;0.00;0.00;;;46.00;41.00;;;;;;5044627;28;20223;-78
2022/06/20 09:31:14;;;;;;;0.00;0.00;;;46.50;40.90;;;;;;5061603;28;20021;-77
2022/06/20 09:33:45;;;;;;;0.00;0.00;;;46.90;40.20;;;;;;5066018;28;20016;-78
2022/06/20 09:36:14;;;;;;;0.00;0.00;;;47.30;39.80;;;;;;5062049;28;20025;-78
2022/06/20 09:38:56;;;;;;;0.00;0.00;;;47.30;40.00;;;;;;5059240;28;20044;-79
2022/06/20 09:41:29;;;;;;;0.00;0.00;;;47.60;40.30;;;;;;5046680;28;20071;-79
2022/06/20 09:44:30;;;;;;;0.00;0.00;;;47.90;39.00;;;;;;5060702;28;20100;-79
2022/06/20 09:47:19;;;;;;;0.00;0.00;;;48.00;39.40;;;;;;5044916;28;20052;-82
2022/06/20 09:49:48;;;;;;;0.00;0.00;;;47.50;39.50;;;;;;5043960;28;20029;-80
2022/06/20 09:52:24;;;;;;;0.00;0.00;;;45.40;40.00;;;;;;5062844;28;20020;-79
2022/06/20 09:55:24;;;;;;;0.00;0.00;;;44.40;40.50;;;;;;5044884;28;20243;-79
2022/06/20 09:58:11;;;;;;;0.00;0.00;;;43.20;41.60;;;;;;5041444;28;20075;-80
2022/06/20 10:00:56;;;;;;;0.00;0.00;;;41.30;43.10;;;;;;5060065;28;20060;-81
2022/06/20 10:03:51;;;;;;;0.00;0.00;;;39.00;46.20;;;;;;5046747;28;20160;-79
2022/06/20 10:06:47;;;;;;;0.00;0.00;;;38.30;48.30;;;;;;5063145;28;20063;-80
2022/06/20 10:09:34;;;;;;;0.00;0.00;;;37.90;48.60;;;;;;5072679;28;20012;-81
2022/06/20 10:12:24;;;;;;;0.00;0.00;;;38.00;48.30;;;;;;5063354;28;20021;-79
2022/06/20 10:14:56;;;;;;;0.00;0.00;;;38.10;48.10;;;;;;5067457;28;20016;-80
2022/06/20 10:17:41;;;;;;;0.00;0.00;;;38.20;48.80;;;;;;5057238;28;20052;-79
2022/06/20 10:20:44;;;;;;;0.00;0.00;;;39.10;48.10;;;;;;5064632;28;20396;-80
2022/06/20 10:23:38;;;;;;;0.00;0.00;;;39.70;46.80;;;;;;5062783;28;20035;-80
2022/06/20 10:26:25;;;;;;;0.00;0.00;;;40.00;46.80;;;;;;5063918;28;20032;-79
2022/06/20 10:29:18;;;;;;;0.00;0.00;;;39.90;47.30;;;;;;5045228;28;20028;-79
2022/06/20 10:31:56;;;;;;;0.00;0.00;;;39.60;47.60;;;;;;5060774;28;20036;-80
2022/06/20 10:34:42;;;;;;;0.00;0.00;;;39.10;47.70;;;;;;5066872;28;20060;-79
2022/06/20 10:37:23;;;;;;;0.00;0.00;;;38.70;48.50;;;;;;5040770;28;20296;-79
2022/06/20 10:40:15;;;;;;;0.00;0.00;;;38.90;49.10;;;;;;5058378;28;20029;-79
2022/06/20 10:42:46;;;;;;;0.00;0.00;;;39.50;48.90;;;;;;5040695;28;20056;-80
2022/06/20 10:45:33;;;;;;;0.00;0.00;;;40.80;48.20;;;;;;5071660;28;20196;-80
2022/06/20 10:48:13;;;;;;;0.00;0.00;;;41.80;46.80;;;;;;5064947;28;20023;-80
2022/06/20 10:50:42;;;;;;;0.00;0.00;;;41.80;45.30;;;;;;5056977;28;20913;-77
2022/06/20 10:53:20;;;;;;;0.00;0.00;;;41.70;46.20;;;;;;5047619;28;20012;-79
2022/06/20 10:56:08;;;;;;;0.00;0.00;;;41.90;45.70;;;;;;5066276;28;20178;-78
2022/06/20 10:59:05;;;;;;;0.00;0.00;;;41.10;46.50;;;;;;5064373;28;20044;-78
2022/06/20 11:01:49;;;;;;;0.00;0.00;;;40.90;47.60;;;;;;5069609;28;20044;-79
2022/06/20 11:04:40;;;;;;;0.00;0.00;;;41.20;47.10;;;;;;5095443;28;20040;-79
2022/06/20 11:07:15;;;;;;;0.00;0.00;;;41.20;46.70;;;;;;5090675;28;20017;-78
2022/06/20 11:09:52;;;;;;;0.00;0.00;;;40.70;47.20;;;;;;5088327;28;20330;-79
2022/06/20 11:12:38;;;;;;;0.00;0.00;;;40.60;47.60;;;;;;5084643;28;20031;-79
2022/06/20 11:15:17;;;;;;;0.00;0.00;;;40.20;48.40;;;;;;5090325;28;20020;-79
2022/06/20 11:18:03;;;;;;;0.00;0.00;;;40.40;48.20;;;;;;5081596;28;20122;-79
2022/06/20 11:20:43;;;;;;;;;;;41.20;47.90;;;;;;5085282;28;20032;-76
2022/06/20 11:23:26;;;;;;;0.00;0.00;;;41.50;47.20;;;;;;5086204;28;19908;-79
2022/06/20 11:25:58;;;;;;;0.00;0.00;;;40.60;47.90;;;;;;5091645;28;20044;-78
2022/06/20 11:28:48;;;;;;;0.00;0.00;;;40.30;47.30;;;;;;5088712;28;20362;-80
2022/06/20 11:31:52;;;;;;;0.00;0.00;;;39.50;48.50;;;;;;5082334;28;20021;-77
2022/06/20 11:34:51;;;;;;;0.00;0.00;;;37.90;50.20;;;;;;5086642;28;20039;-80
2022/06/20 11:37:37;;;;;;;0.00;0.00;;;36.80;51.70;;;;;;5085805;28;20024;-79
2022/06/20 11:40:34;;;;;;;0.00;0.00;;;36.30;53.30;;;;;;5087318;28;20024;-79
2022/06/20 11:43:05;;;;;;;0.00;0.00;;;35.60;53.60;;;;;;5083199;28;20103;-79
2022/06/20 11:45:47;;;;;;;0.00;0.00;;;35.50;54.70;;;;;;5084041;28;20012;-78
2022/06/20 11:48:46;;;;;;;0.00;0.00;;;35.50;54.70;;;;;;5085143;28;20021;-79
2022/06/20 11:51:51;;;;;;;0.00;0.00;;;35.40;54.90;;;;;;5087142;28;20028;-78
2022/06/20 11:54:19;;;;;;;0.00;0.00;;;35.00;55.30;;;;;;5083135;28;20032;-79
2022/06/20 11:56:57;;;;;;;0.00;0.00;;;34.70;55.90;;;;;;5091291;28;20040;-77
2022/06/20 11:59:29;;;;;;;0.00;0.00;;;34.60;56.20;;;;;;5082967;28;20020;-76
2022/06/20 12:02:32;;;;;;;0.00;0.00;;;34.50;55.90;;;;;;5069024;28;20060;-76
2022/06/20 12:05:38;;;;;;;0.00;0.00;;;34.50;56.00;;;;;;5066045;28;20036;-76
2022/06/20 12:08:10;;;;;;;0.00;0.00;;;34.40;54.80;;;;;;5062128;28;20270;-77
2022/06/20 12:10:42;;;;;;;0.00;0.00;;;34.10;54.90;;;;;;5045038;28;20036;-78
2022/06/20 12:13:38;;;;;;;0.00;0.00;;;33.80;55.10;;;;;;5049377;28;20016;-78
2022/06/20 12:16:26;;;;;;;0.00;0.00;;;33.60;55.20;;;;;;5063893;28;20319;-76
2022/06/20 12:24:32;;;;;;;;;;;33.20;57.60;;;;;;5068576;28;20109;-78
2022/06/20 12:26:57;;;;;;;0.00;0.00;;;33.20;56.60;;;;;;5061779;28;19913;-78
2022/06/20 12:29:25;;;;;;;0.00;0.00;;;33.30;57.20;;;;;;5064748;28;20067;-79
2022/06/20 12:32:05;;;;;;;0.00;0.00;;;33.20;56.50;;;;;;5062717;28;20013;-78
2022/06/20 12:35:02;;;;;;;0.00;0.00;;;32.60;57.60;;;;;;5061064;28;20025;-80
2022/06/20 12:38:05;;;;;;;0.00;0.00;;;31.90;58.50;;;;;;5065802;28;20025;-79
2022/06/20 12:40:55;;;;;;;0.00;0.00;;;31.50;61.00;;;;;;5034431;28;20035;-79
2022/06/20 12:43:26;;;;;;;0.00;0.00;;;31.30;62.60;;;;;;5067979;28;20024;-78
2022/06/20 12:46:26;;;;;;;0.00;0.00;;;31.30;62.80;;;;;;5068164;28;20032;-77
2022/06/20 12:49:03;;;;;;;0.00;0.00;;;31.60;63.00;;;;;;5048327;28;20025;-78
2022/06/20 12:51:38;;;;;;;0.00;0.00;;;31.80;62.10;;;;;;5068147;28;20017;-78
2022/06/20 12:54:13;;;;;;;0.00;0.00;;;31.70;61.10;;;;;;5052810;28;20059;-78
2022/06/20 12:57:12;;;;;;;0.00;0.00;;;31.30;61.30;;;;;;5046277;28;20023;-78
2022/06/20 12:59:43;;;;;;;0.00;0.00;;;31.10;62.60;;;;;;5063601;28;20159;-78
2022/06/20 13:02:23;;;;;;;0.00;0.00;;;31.10;62.60;;;;;;5065432;28;20017;-78
2022/06/20 13:05:26;;;;;;;0.00;0.00;;;31.10;62.90;;;;;;5065134;28;20047;-76
2022/06/20 13:08:10;;;;;;;0.00;0.00;;;30.90;62.60;;;;;;5067066;28;20204;-76
2022/06/20 13:10:52;;;;;;;0.00;0.00;;;30.90;63.50;;;;;;5062723;28;20023;-77
2022/06/20 13:13:39;;;;;;;0.00;0.00;;;30.90;63.20;;;;;;5052976;28;20033;-78
2022/06/20 13:16:23;;;;;;;0.00;0.00;;;31.00;63.50;;;;;;5063825;28;20028;-77
2022/06/20 13:18:52;;;;;;;0.00;0.00;;;31.10;63.40;;;;;;5068279;28;20024;-76
2022/06/20 13:21:42;;;;;;;0.00;0.00;;;31.10;63.20;;;;;;5067942;28;20039;-76
2022/06/20 13:24:26;;;;;;;0.00;0.00;;;31.10;63.40;;;;;;5048759;28;20040;-77
2022/06/20 13:27:13;;;;;;;0.00;0.00;;;31.10;62.70;;;;;;5067629;28;20024;-77
2022/06/20 13:29:47;;;;;;;;;;;31.10;63.00;;;;;;5070131;28;20020;-77
2022/06/20 13:32:25;;;;;;;0.00;0.00;;;31.10;62.30;;;;;;5068912;28;20191;-77
2022/06/20 13:35:09;;;;;;;;;;;31.10;62.00;;;;;;5063638;28;20036;-76
2022/06/20 13:37:53;;;;;;;0.00;0.00;;;31.10;61.80;;;;;;5062811;28;19908;-77
2022/06/20 13:40:40;;;;;;;0.00;0.00;;;31.10;61.40;;;;;;5051360;28;20017;-77
2022/06/20 13:43:40;;;;;;;0.00;0.00;;;31.10;61.80;;;;;;5065692;28;20041;-79
2022/06/20 13:46:21;;;;;;;0.00;0.00;;;31.10;61.70;;;;;;5065242;28;20028;-77
2022/06/20 13:48:59;;;;;;;0.00;0.00;;;31.10;62.40;;;;;;5070104;28;20032;-78
2022/06/20 13:51:47;;;;;;;0.00;0.00;;;31.00;61.80;;;;;;5062562;28;20013;-76
2022/06/20 13:54:24;;;;;;;0.00;0.00;;;31.10;61.90;;;;;;5064423;28;20033;-79
2022/06/20 13:56:56;;;;;;;0.00;0.00;;;31.00;62.10;;;;;;5068422;28;20020;-77
2022/06/20 13:59:36;;;;;;;0.00;0.00;;;31.10;62.10;;;;;;5051132;28;20028;-77
2022/06/20 14:02:27;;;;;;;0.00;0.00;;;31.10;61.60;;;;;;5049424;28;20095;-77
2022/06/20 14:04:54;;;;;;;0.00;0.00;;;30.90;61.10;;;;;;5047100;28;20178;-77